Wetterdaten: aktuell Samstag, 25.11.2017 00:30
Datum Zeit Temp. A. Feuchte A. Luftdruck Regen Wind Richtung Richtung Taupunkt Windchill Windben Empfang
25.11.2017 00:30 4,8 C 96 % 1011,3 hPa 0,0 l/m 0,0 km/h (0 Bft) S-SW 212 4,2 C 4,8 C 0,0 km/h (0 Bft) 98 %
24.11.2017 23:30 5,1 C 97 % 1011,9 hPa 0,0 l/m 0,6 km/h (0 Bft) S-SW 212 4,7 C 5,1 C 3,7 km/h (1 Bft) 99 %
24.11.2017 22:30 4,9 C 96 % 1011,6 hPa 0,0 l/m 0,4 km/h (0 Bft) S-SW 212 4,3 C 4,9 C 3,7 km/h (1 Bft) 100 %
24.11.2017 21:30 5,1 C 96 % 1011,8 hPa 0,0 l/m 0,7 km/h (0 Bft) S-SW 212 4,5 C 5,1 C 5,6 km/h (1 Bft) 98 %
24.11.2017 20:30 5,3 C 96 % 1011,7 hPa 0,0 l/m 2,1 km/h (1 Bft) S-SW 212 4,7 C 5,3 C 5,6 km/h (1 Bft) 99 %
24.11.2017 19:30 5,6 C 95 % 1011,6 hPa 0,0 l/m 2,4 km/h (1 Bft) S-SW 198 4,9 C 5,6 C 5,6 km/h (1 Bft) 98 %
24.11.2017 18:30 6,2 C 95 % 1011,0 hPa 0,0 l/m 3,1 km/h (1 Bft) S-SW 192 5,5 C 6,2 C 7,5 km/h (2 Bft) 100 %
24.11.2017 17:30 6,5 C 93 % 1010,9 hPa 0,2 l/m 4,7 km/h (1 Bft) S-SW 194 5,5 C 6,5 C 11,2 km/h (2 Bft) 100 %
24.11.2017 16:30 7,3 C 92 % 1010,7 hPa 0,0 l/m 5,0 km/h (1 Bft) S-SW 212 6,1 C 7,3 C 11,2 km/h (2 Bft) 100 %
24.11.2017 15:30 7,7 C 90 % 1010,2 hPa 0,0 l/m 6,1 km/h (2 Bft) W-SW 240 6,2 C 7,7 C 15,0 km/h (3 Bft) 100 %
24.11.2017 14:30 8,3 C 90 % 1009,2 hPa 0,0 l/m 7,3 km/h (2 Bft) S-SW 200 6,8 C 7,6 C 15,0 km/h (3 Bft) 100 %
24.11.2017 13:30 7,7 C 94 % 1009,1 hPa 0,0 l/m 3,7 km/h (1 Bft) S-SW 202 6,8 C 7,7 C 9,4 km/h (2 Bft) 100 %
24.11.2017 12:30 7,3 C 95 % 1009,0 hPa 0,0 l/m 3,7 km/h (1 Bft) SW 225 6,6 C 7,3 C 9,4 km/h (2 Bft) 100 %
24.11.2017 11:30 7,3 C 96 % 1008,7 hPa 0,4 l/m 1,9 km/h (1 Bft) W-SW 247 6,7 C 7,3 C 7,5 km/h (2 Bft) 100 %
24.11.2017 10:30 7,2 C 96 % 1007,9 hPa 0,0 l/m 3,7 km/h (1 Bft) S-SW 202 6,6 C 7,2 C 9,4 km/h (2 Bft) 100 %
24.11.2017 09:30 7,2 C 96 % 1006,9 hPa 0,0 l/m 0,0 km/h (0 Bft) S-SW 202 6,6 C 7,2 C 3,7 km/h (1 Bft) 100 %
24.11.2017 08:30 7,0 C 96 % 1006,8 hPa 0,2 l/m 1,9 km/h (1 Bft) S-SW 202 6,4 C 7,0 C 5,6 km/h (1 Bft) 100 %
24.11.2017 07:30 7,1 C 95 % 1006,0 hPa 1,8 l/m 0,0 km/h (0 Bft) S-SW 202 6,4 C 7,1 C 3,7 km/h (1 Bft) 100 %
24.11.2017 06:30 7,3 C 94 % 1006,4 hPa 1,2 l/m 1,9 km/h (1 Bft) SW 225 6,4 C 7,3 C 5,6 km/h (1 Bft) 100 %
24.11.2017 05:30 7,6 C 92 % 1006,4 hPa 0,4 l/m 0,0 km/h (0 Bft) W 270 6,4 C 7,6 C 3,7 km/h (1 Bft) 100 %
24.11.2017 04:30 7,9 C 89 % 1007,1 hPa 0,0 l/m 7,5 km/h (2 Bft) S-SW 202 6,2 C 7,0 C 16,9 km/h (3 Bft) 100 %
24.11.2017 03:30 7,7 C 89 % 1006,3 hPa 0,0 l/m 7,5 km/h (2 Bft) S-SW 202 6,0 C 6,8 C 16,9 km/h (3 Bft) 100 %
24.11.2017 02:30 8,0 C 87 % 1006,7 hPa 0,0 l/m 7,5 km/h (2 Bft) S-SW 202 6,0 C 7,1 C 15,0 km/h (3 Bft) 100 %
24.11.2017 01:30 8,2 C 86 % 1006,9 hPa 0,0 l/m 9,4 km/h (2 Bft) S-SW 202 6,0 C 6,0 C 24,4 km/h (4 Bft) 100 %
24.11.2017 01:00 8,1 C 86 % 1007,1 hPa 0,0 l/m 9,4 km/h (2 Bft) S-SW 202 5,9 C 5,9 C 22,5 km/h (4 Bft) 100 %
_ Min-Zeit 22:20 01:00 07:50 - 05:30 - - 00:20 00:20 06:10 15:00
Minimum _ 4,8 C 86 % 1005,8 hPa - 0,0 km/h (0 Bft) - - 4,2 C 4,8 C 0,0 km/h (0 Bft) 97 %
_ Max-Zeit 14:30 23:00 21:20 06:40 01:10 - - 14:20 15:00 01:30 01:00
Maximum _ 8,4 C 97 % 1011,9 hPa 0,6 l/m 11,2 km/h
S-SW (2 Bft)
- - 7,1 C 8,1 C 24,4 km/h
SW (4 Bft)
100 %
Durchschnitt _ 6,9 C 93 % 1008,9 hPa #4,2 l/m 3,8 km/h (1 Bft) S-SW - 5,9 C 6,6 C 9,6 km/h (2 Bft) 100 %